Dryland Event Management

Virtual Series: Momentum Tankwa Trek

Presented by:

Cape Multisport Club


Momentum Tankwa Trek ( HALF - Virtual) Results

PRELIMINARY

Day 1

Overall ID Surname Name Gender Distance Time Ave Speed Ave Cadence Ave Watts
1 8828614 JONES BRADLEY M 53 01:39:50 31.9 0 309
2 1904432 CHANEY MELISSA F 53 01:56:14 27.4 75 170
3 12201984 BRESCIANINO ROGER M 53 01:56:36 27.3 71 204
4 3994102 POTGIETER COBUS M 53 01:57:40 27.1 73 200
5 2102629 DOCKTER SEBASTIAN M 53 01:59:22 26.7 74 209
6 26085710 VAN ROOYEN MIA F 53 01:59:34 26.6 0 157
7 21984240 NIEUWOUDT HEIDI F 53 01:59:57 26.6 74 172
8 2302130 COETZEE TERESA F 53 02:03:04 25.9 0 182
9 1688365 ROSSOL RALF M 53 02:03:21 25.8 74 210
10 11600001 LE ROUX JULIA F 53 02:05:47 25.3 81 149
11 3057211 HOEKSEMA 😎 GERICKE M 53 02:06:37 25.2 87 193
12 9876031 BRUCHNER ANTJE F 53 02:13:11 23.9 0 141
13 13512683 CLARKE DAWN F 53 02:13:35 23.8 0 126
14 3916493 ALBERTYN CATHERINE F 53 02:15:03 23.6 75 159
15 5205968 DE WET SUSAN F 53 02:15:42 23.5 88 165
16 22904230 KOLBE LUKAS M 53 02:16:37 23.3 83 175
17 19098270 SWANEVELDER SONJA F 53 02:18:10 23.1 78 127
18 13458052 BRASE ILSE F 53 02:22:36 22.3 74 144
19 1629542 STEWART NICCI F 53 02:26:43 21.7 80 121
20 7261510 OBERHOLZER LIZZY F 53 02:27:27 21.6 65 145
21 3527202 LOOF EDUARD M 53 02:29:59 21.2 0 170
22 3779151 POPE SUZANNE F 53 02:30:33 21.2 65 114
23 4014722 LEACH ANDRE M 53 02:45:55 19.2 83 161
24 5038492 NOWAK CHRISTOPHER M 53 02:52:17 18.5 71 132
25 7773728 PRINSLOO JACO M 53 03:35:21 14.8 75 116

Day 2

Overall ID Surname Name Gender Distance Time Ave Speed Ave Cadence Ave Watts
1 2102629 DOCKTER SEBASTIAN M 69 02:15:04 30.6 75 277
2 8828614 JONES BRADLEY M 69 02:19:00 29.8 0 281
3 21984240 NIEUWOUDT HEIDI F 69 02:24:22 28.7 79 162
4 26085710 VAN ROOYEN MIA F 69 02:29:08 27.8 0 171
5 3994102 POTGIETER COBUS M 69 02:32:14 27.2 79 203
6 1904432 CHANEY MELISSA F 69 02:34:50 26.7 79 162
7 171230 BEKKER CHRISTO M 69 02:35:45 26.6 80 172
8 1688365 ROSSOL RALF M 69 02:40:56 25.7 74 207
9 2302130 COETZEE TERESA F 69 02:46:25 24.9 0 168
10 11600001 LE ROUX JULIA F 69 02:50:41 24.2 79 143
11 9876031 BRUCHNER ANTJE F 69 02:57:08 23.4 0 134
12 3916493 ALBERTYN CATHERINE F 69 03:01:44 22.8 78 158
13 13458052 BRASE ILSE F 69 03:02:12 22.7 68 133
14 3057211 HOEKSEMA 😎 GERICKE M 69 03:03:23 22.6 79 165
15 3527202 LOOF EDUARD M 69 03:05:43 22.3 0 164
16 5205968 DE WET SUSAN F 69 03:10:46 21.7 83 144
17 13512683 CLARKE DAWN F 69 03:11:12 21.6 0 109
18 26165983 LE ROUX ANDRE M 69 03:15:52 21.1 72 169
19 3779151 POPE SUZANNE F 69 03:15:59 21.1 69 118
20 19098270 SWANEVELDER SONJA F 69 03:18:33 20.8 78 111
21 22904230 KOLBE LUKAS M 69 03:23:16 20.4 78 144
22 1629542 STEWART NICCI F 69 03:24:27 20.2 76 106
23 7261510 OBERHOLZER LIZZY F 69 03:25:23 20.2 61 132
24 15568841 SCHEWITZ LISA F 69 03:26:10 20.1 80 125
25 5038492 NOWAK CHRISTOPHER M 69 05:14:01 13.2 54 100

Day 3

Overall ID Surname Name Gender Distance Time Ave Speed Ave Cadence Ave Watts
1 8828614 JONES BRADLEY M 30 00:52:37 33.8 0 321
2 21919155 BURGER MURRAY M 30 00:54:18 32.8 80 238
3 2102629 DOCKTER SEBASTIAN M 30 00:55:57 31.8 76 260
4 26085710 VAN ROOYEN MIA F 30 00:56:24 31.5 0 196
5 21984240 NIEUWOUDT HEIDI F 30 00:58:49 30.2 79 197
6 171230 BEKKER CHRISTO M 30 00:58:55 30.2 86 202
7 1904432 CHANEY MELISSA F 30 00:59:41 29.8 77 186
8 1688365 ROSSOL RALF M 30 01:00:42 29.3 77 234
9 2302130 COETZEE TERESA F 30 01:02:37 28.4 0 194
10 3994102 POTGIETER COBUS M 30 01:02:55 28.3 78 199
11 12092125 POTGIETER MIDEE F 30 01:02:56 28.3 74 169
12 11600001 LE ROUX JULIA F 30 01:02:58 28.3 81 163
13 3527202 LOOF EDUARD M 30 01:05:46 27 0 197
14 3916493 ALBERTYN CATHERINE F 30 01:05:58 27 80 176
15 19098270 SWANEVELDER SONJA F 30 01:07:37 26.3 82 144
16 9876031 BRUCHNER ANTJE F 30 01:09:26 25.6 0 141
17 5205968 DE WET SUSAN F 30 01:09:56 25.4 85 166
18 3779151 POPE SUZANNE F 30 01:11:45 24.8 73 132
19 7261510 OBERHOLZER LIZZY F 30 01:12:37 24.5 67 159
20 26165983 LE ROUX ANDRE M 30 01:14:41 23.8 73 175
21 13512683 CLARKE DAWN F 30 01:14:46 23.8 0 114
22 48712726 COETZEE SANPAT F 30 01:15:38 23.5 0 137
23 15568841 SCHEWITZ LISA F 30 01:17:17 23 78 135
24 3057211 HOEKSEMA 😎 GERICKE M 30 01:20:40 22.1 85 181
25 13458052 BRASE ILSE F 30 01:21:50 21.7 70 140
26 1629542 STEWART NICCI F 30 01:22:42 21.5 80 107
27 5038492 NOWAK CHRISTOPHER M 30 01:27:08 20.4 70 133

Day 4

Overall ID Surname Name Gender Distance Time Ave Speed Ave Cadence Ave Watts
1 3443994 DE SWARDT CHRIS M 35 01:15:32 27.7 0 273
2 2102629 DOCKTER SEBASTIAN M 35 01:16:50 27.2 75 276
3 8828614 JONES BRADLEY M 35 01:19:17 26.4 0 302
4 26085710 VAN ROOYEN MIA F 35 01:25:56 24.3 0 185
5 21919155 BURGER MURRAY M 35 01:26:58 24 74 214
6 171230 BEKKER CHRISTO M 35 01:30:37 23.1 79 184
7 21984240 NIEUWOUDT HEIDI F 35 01:30:57 23 75 183
8 1904432 CHANEY MELISSA F 35 01:34:01 22.2 73 168
9 1688365 ROSSOL RALF M 35 01:35:36 21.9 73 217
10 11600001 LE ROUX JULIA F 35 01:39:08 21.1 77 157
11 3994102 POTGIETER COBUS M 35 01:40:19 20.8 71 182
12 3527202 LOOF EDUARD M 35 01:43:20 20.2 0 197
13 3916493 ALBERTYN CATHERINE F 35 01:45:03 19.9 72 169
14 19098270 SWANEVELDER SONJA F 35 01:45:48 19.8 79 145
15 3779151 POPE SUZANNE F 35 01:45:53 19.8 60 144
16 9876031 BRUCHNER ANTJE F 35 01:48:22 19.3 0 141
17 5205968 DE WET SUSAN F 35 01:49:06 19.2 81 170
18 9231 BRYANT STEVE M 35 01:51:38 18.7 81 170
19 22904230 KOLBE LUKAS M 35 01:51:51 18.7 70 172
20 7261510 OBERHOLZER LIZZY F 35 01:54:58 18.2 64 161
21 13512683 CLARKE DAWN F 35 01:56:15 18 0 117
22 13458052 BRASE ILSE F 35 01:59:46 17.5 69 139
23 15568841 SCHEWITZ LISA F 35 02:08:25 16.3 70 129
24 26165983 LE ROUX ANDRE M 35 02:08:35 16.3 73 169
25 1629542 STEWART NICCI F 35 02:11:29 15.9 75 107
26 5038492 NOWAK CHRISTOPHER M 35 02:20:37 14.9 52 133

OVERALL

Overall ID Surname Name Gender Distance Time Ave Speed Ave Cadence Ave Watts
1 8828614 JONES BRADLEY M 187 06:10:44 30.2 0 303
2 2102629 DOCKTER SEBASTIAN M 187 06:27:13 28.9 75 256
3 26085710 VAN ROOYEN MIA F 187 06:51:02 27.2 0 177
4 21984240 NIEUWOUDT HEIDI F 187 06:54:05 27 77 179
5 1904432 CHANEY MELISSA F 187 07:04:46 26.4 76 172
6 3994102 POTGIETER COBUS M 187 07:13:08 25.8 75 196
7 1688365 ROSSOL RALF M 187 07:20:35 25.4 75 217
8 11600001 LE ROUX JULIA F 187 07:38:34 24.4 80 153
9 3916493 ALBERTYN CATHERINE F 187 08:07:48 22.9 76 166
10 9876031 BRUCHNER ANTJE F 187 08:08:07 22.9 0 139
11 3527202 LOOF EDUARD M 187 08:24:48 22.2 0 182
12 5205968 DE WET SUSAN F 187 08:25:30 22.1 84 161
13 19098270 SWANEVELDER SONJA F 187 08:30:08 21.9 79 132
14 13512683 CLARKE DAWN F 187 08:35:48 21.7 0 117
15 3779151 POPE SUZANNE F 187 08:44:10 21.4 67 127
16 13458052 BRASE ILSE F 187 08:46:24 21.3 70 139
17 7261510 OBERHOLZER LIZZY F 187 09:00:25 20.7 64 149
18 1629542 STEWART NICCI F 187 09:25:21 19.8 78 110
19 5038492 NOWAK CHRISTOPHER M 187 11:54:03 15.7 62 125
20 22904230 KOLBE LUKAS M 157 07:31:44 20.8 77 164
21 2302130 COETZEE TERESA F 152 05:52:06 25.9 0 181
22 3057211 HOEKSEMA 😎 GERICKE M 152 06:30:40 23.3 84 180
23 171230 BEKKER CHRISTO M 133 05:05:17 26.2 82 186
24 26165983 LE ROUX ANDRE M 133 06:39:08 20.1 73 171
25 15568841 SCHEWITZ LISA F 133 06:51:52 19.4 76 130
26 21919155 BURGER MURRAY M 65 02:21:16 27.4 77 226
27 12201984 BRESCIANINO ROGER M 53 01:56:36 27.3 71 204
28 4014722 LEACH ANDRE M 53 02:45:55 19.2 83 161
29 7773728 PRINSLOO JACO M 53 03:35:21 14.8 75 116
30 3443994 DE SWARDT CHRIS M 35 01:15:32 27.7 0 273
31 9231 BRYANT STEVE M 35 01:51:38 18.7 81 170
32 12092125 POTGIETER MIDEE F 30 01:02:56 28.3 74 169
33 48712726 COETZEE SANPAT F 30 01:15:38 23.5 0 137